world map with GYL marked

GYL - Airport

This information may not be accurate or current and is not valid for navigation or flight planning. No warranty of fitness for any purpose is made or implied.

flag of Western Australiaflag of Australia

Donate via PayPal

Additional information is available on the NEW Great Circle Mapper

Location
City:  Argyle, Western Australia, Australia
ICAO / IATA:YARG / GYL

Details
Type:Airport (Aerodrome, Airfield)
Latitude:16°38'13"S (-16.636943)
Longitude:128°27'05"E (128.451389)
Datum:WGS 1984
Elevation:522 ft (159 m)
Runways:1
Longest:7546 × 98 ft (2300 × 30 m)

Time
Timezone:UTC+8 (DST+10)
Local Time:

Weather
METAR:YARG  041400Z AUTO 34006KT 9999 // NCD 30/21 Q1006

Related Locations
Nearby:
Farthest:BGI: 11861 mi / 19088 km
Bridgetown [Grantley Adams Intl], BB

Find:

   beyond  
but within

Other Information
Maps:
Sources:

  


 


Great Circle Mapper   Great Circle Mapper
Great Circle Mapper FAQ   Great Circle Mapper FAQ
  Karl's Home Page
KLSē   KLSē Home
   GC on Facebook
Airlines of the World   Airlines of the World
Donate via PayPal


Copyright © 2004-2019, Karl L. Swartz. All rights reserved.
All trademarks mentioned herein belong to their respective owners.

Please see credits for attribution and copyright information.

Karl Swartz <karl@kls2.com>
  Powered by FreeBSD
Valid HTML 4.01!
Labeled with ICRA
hCard Microformat
Geo Microformat